sensor_id;sensor_type;location;lat;lon;timestamp;temperature;humidity
23721;DHT22;42950;52.134;5.578;2023-06-26T00:00:26;23.90;99.90
23721;DHT22;42950;52.134;5.578;2023-06-26T00:02:52;23.90;99.90
23721;DHT22;42950;52.134;5.578;2023-06-26T00:05:17;23.90;99.90
23721;DHT22;42950;52.134;5.578;2023-06-26T00:07:43;23.90;99.90
23721;DHT22;42950;52.134;5.578;2023-06-26T00:10:09;23.80;99.90
23721;DHT22;42950;52.134;5.578;2023-06-26T00:12:34;23.80;99.90
23721;DHT22;42950;52.134;5.578;2023-06-26T00:15:00;23.80;99.90
23721;DHT22;42950;52.134;5.578;2023-06-26T00:17:25;23.70;99.90
23721;DHT22;42950;52.134;5.578;2023-06-26T00:19:51;23.70;99.90
23721;DHT22;42950;52.134;5.578;2023-06-26T00:22:18;23.70;99.90
23721;DHT22;42950;52.134;5.578;2023-06-26T00:24:44;23.70;99.90
23721;DHT22;42950;52.134;5.578;2023-06-26T00:27:12;23.70;99.90
23721;DHT22;42950;52.134;5.578;2023-06-26T00:29:38;23.80;99.90
23721;DHT22;42950;52.134;5.578;2023-06-26T00:32:04;23.80;99.90
23721;DHT22;42950;52.134;5.578;2023-06-26T00:34:30;23.70;99.90
23721;DHT22;42950;52.134;5.578;2023-06-26T00:36:55;23.70;99.90
23721;DHT22;42950;52.134;5.578;2023-06-26T00:39:21;23.70;99.90
23721;DHT22;42950;52.134;5.578;2023-06-26T00:41:46;23.70;99.90
23721;DHT22;42950;52.134;5.578;2023-06-26T00:44:12;23.60;99.90
23721;DHT22;42950;52.134;5.578;2023-06-26T00:46:38;23.50;99.90
23721;DHT22;42950;52.134;5.578;2023-06-26T00:49:04;23.60;99.90
23721;DHT22;42950;52.134;5.578;2023-06-26T00:51:30;23.50;99.90
23721;DHT22;42950;52.134;5.578;2023-06-26T00:53:57;23.50;99.90
23721;DHT22;42950;52.134;5.578;2023-06-26T00:56:23;23.60;99.90
23721;DHT22;42950;52.134;5.578;2023-06-26T00:58:49;23.50;99.90
23721;DHT22;42950;52.134;5.578;2023-06-26T01:01:15;23.50;99.90
23721;DHT22;42950;52.134;5.578;2023-06-26T01:03:43;23.50;99.90
23721;DHT22;42950;52.134;5.578;2023-06-26T01:06:11;23.50;99.90
23721;DHT22;42950;52.134;5.578;2023-06-26T01:08:39;23.50;99.90
23721;DHT22;42950;52.134;5.578;2023-06-26T01:11:06;23.40;99.90
23721;DHT22;42950;52.134;5.578;2023-06-26T01:13:33;23.40;99.90
23721;DHT22;42950;52.134;5.578;2023-06-26T01:15:59;23.40;99.90
23721;DHT22;42950;52.134;5.578;2023-06-26T01:18:26;23.30;99.90
23721;DHT22;42950;52.134;5.578;2023-06-26T01:20:53;23.30;99.90
23721;DHT22;42950;52.134;5.578;2023-06-26T01:23:42;23.30;99.90
23721;DHT22;42950;52.134;5.578;2023-06-26T01:26:21;23.40;99.90
23721;DHT22;42950;52.134;5.578;2023-06-26T01:28:49;23.30;99.90
23721;DHT22;42950;52.134;5.578;2023-06-26T01:31:16;23.20;99.90
23721;DHT22;42950;52.134;5.578;2023-06-26T01:33:43;23.10;99.90
23721;DHT22;42950;52.134;5.578;2023-06-26T01:36:09;23.00;99.90
23721;DHT22;42950;52.134;5.578;2023-06-26T01:38:35;23.00;99.90
23721;DHT22;42950;52.134;5.578;2023-06-26T01:41:02;23.00;99.90
23721;DHT22;42950;52.134;5.578;2023-06-26T01:47:02;22.80;99.90
23721;DHT22;42950;52.134;5.578;2023-06-26T01:53:24;22.80;99.90
23721;DHT22;42950;52.134;5.578;2023-06-26T01:58:15;22.60;99.90
23721;DHT22;42950;52.134;5.578;2023-06-26T02:00:42;22.60;99.90
23721;DHT22;42950;52.134;5.578;2023-06-26T02:03:08;22.50;99.90
23721;DHT22;42950;52.134;5.578;2023-06-26T02:05:34;22.50;99.90
23721;DHT22;42950;52.134;5.578;2023-06-26T02:08:00;22.40;99.90
23721;DHT22;42950;52.134;5.578;2023-06-26T02:10:28;22.40;99.90
23721;DHT22;42950;52.134;5.578;2023-06-26T02:12:53;22.40;99.90
23721;DHT22;42950;52.134;5.578;2023-06-26T02:15:19;22.50;99.90
23721;DHT22;42950;52.134;5.578;2023-06-26T02:17:44;22.40;99.90
23721;DHT22;42950;52.134;5.578;2023-06-26T02:20:13;22.30;99.90
23721;DHT22;42950;52.134;5.578;2023-06-26T02:22:39;22.30;99.90
23721;DHT22;42950;52.134;5.578;2023-06-26T02:25:05;22.30;99.90
23721;DHT22;42950;52.134;5.578;2023-06-26T02:27:31;22.30;99.90
23721;DHT22;42950;52.134;5.578;2023-06-26T02:29:56;22.20;99.90
23721;DHT22;42950;52.134;5.578;2023-06-26T02:32:22;22.10;99.90
23721;DHT22;42950;52.134;5.578;2023-06-26T02:34:47;22.10;99.90
23721;DHT22;42950;52.134;5.578;2023-06-26T02:37:13;22.00;99.90
23721;DHT22;42950;52.134;5.578;2023-06-26T02:39:39;21.90;99.90
23721;DHT22;42950;52.134;5.578;2023-06-26T02:42:05;21.80;99.90
23721;DHT22;42950;52.134;5.578;2023-06-26T02:44:30;21.80;99.90
23721;DHT22;42950;52.134;5.578;2023-06-26T02:46:56;21.80;99.90
23721;DHT22;42950;52.134;5.578;2023-06-26T02:49:21;21.70;99.90
23721;DHT22;42950;52.134;5.578;2023-06-26T02:51:47;21.60;99.90
23721;DHT22;42950;52.134;5.578;2023-06-26T02:54:12;21.60;99.90
23721;DHT22;42950;52.134;5.578;2023-06-26T02:56:38;21.50;99.90
23721;DHT22;42950;52.134;5.578;2023-06-26T02:59:04;21.50;99.90
23721;DHT22;42950;52.134;5.578;2023-06-26T03:01:29;21.40;99.90
23721;DHT22;42950;52.134;5.578;2023-06-26T03:03:55;21.30;99.90
23721;DHT22;42950;52.134;5.578;2023-06-26T03:06:21;21.30;99.90
23721;DHT22;42950;52.134;5.578;2023-06-26T03:08:46;21.20;99.90
23721;DHT22;42950;52.134;5.578;2023-06-26T03:11:12;21.20;99.90
23721;DHT22;42950;52.134;5.578;2023-06-26T03:13:38;21.20;99.90
23721;DHT22;42950;52.134;5.578;2023-06-26T03:16:04;21.10;99.90
23721;DHT22;42950;52.134;5.578;2023-06-26T03:18:29;21.00;99.90
23721;DHT22;42950;52.134;5.578;2023-06-26T03:20:56;21.10;99.90
23721;DHT22;42950;52.134;5.578;2023-06-26T03:23:22;21.10;99.90
23721;DHT22;42950;52.134;5.578;2023-06-26T03:25:49;21.10;99.90
23721;DHT22;42950;52.134;5.578;2023-06-26T03:28:14;21.00;99.90
23721;DHT22;42950;52.134;5.578;2023-06-26T03:30:40;21.00;99.90
23721;DHT22;42950;52.134;5.578;2023-06-26T03:33:05;21.00;99.90
23721;DHT22;42950;52.134;5.578;2023-06-26T03:35:31;20.90;99.90
23721;DHT22;42950;52.134;5.578;2023-06-26T03:37:57;20.90;99.90
23721;DHT22;42950;52.134;5.578;2023-06-26T03:40:23;20.90;99.90
23721;DHT22;42950;52.134;5.578;2023-06-26T03:42:49;20.80;99.90
23721;DHT22;42950;52.134;5.578;2023-06-26T03:45:14;20.80;99.90
23721;DHT22;42950;52.134;5.578;2023-06-26T03:47:40;20.70;99.90
23721;DHT22;42950;52.134;5.578;2023-06-26T03:50:06;20.70;99.90
23721;DHT22;42950;52.134;5.578;2023-06-26T03:52:31;20.70;99.90
23721;DHT22;42950;52.134;5.578;2023-06-26T03:54:57;20.80;99.90
23721;DHT22;42950;52.134;5.578;2023-06-26T03:57:23;20.80;99.90
23721;DHT22;42950;52.134;5.578;2023-06-26T03:59:49;20.80;99.90
23721;DHT22;42950;52.134;5.578;2023-06-26T04:02:15;20.80;99.90
23721;DHT22;42950;52.134;5.578;2023-06-26T04:04:41;20.80;99.90
23721;DHT22;42950;52.134;5.578;2023-06-26T04:07:06;20.80;99.90
23721;DHT22;42950;52.134;5.578;2023-06-26T04:09:32;20.70;99.90
23721;DHT22;42950;52.134;5.578;2023-06-26T04:11:57;20.80;99.90
23721;DHT22;42950;52.134;5.578;2023-06-26T04:14:23;20.80;99.90
23721;DHT22;42950;52.134;5.578;2023-06-26T04:16:48;20.80;99.90
23721;DHT22;42950;52.134;5.578;2023-06-26T04:19:14;20.80;99.90
23721;DHT22;42950;52.134;5.578;2023-06-26T04:21:41;20.70;99.90
23721;DHT22;42950;52.134;5.578;2023-06-26T04:24:07;20.60;99.90
23721;DHT22;42950;52.134;5.578;2023-06-26T04:26:32;20.60;99.90
23721;DHT22;42950;52.134;5.578;2023-06-26T04:28:59;20.50;99.90
23721;DHT22;42950;52.134;5.578;2023-06-26T04:31:25;20.50;99.90
23721;DHT22;42950;52.134;5.578;2023-06-26T04:33:50;20.50;99.90
23721;DHT22;42950;52.134;5.578;2023-06-26T04:36:17;20.50;99.90
23721;DHT22;42950;52.134;5.578;2023-06-26T04:38:43;20.50;99.90
23721;DHT22;42950;52.134;5.578;2023-06-26T04:41:09;20.50;99.90
23721;DHT22;42950;52.134;5.578;2023-06-26T04:43:34;20.50;99.90
23721;DHT22;42950;52.134;5.578;2023-06-26T04:46:01;20.50;99.90
23721;DHT22;42950;52.134;5.578;2023-06-26T04:48:27;20.50;99.90
23721;DHT22;42950;52.134;5.578;2023-06-26T04:50:54;20.50;99.90
23721;DHT22;42950;52.134;5.578;2023-06-26T04:53:22;20.50;99.90
23721;DHT22;42950;52.134;5.578;2023-06-26T04:55:49;20.50;99.90
23721;DHT22;42950;52.134;5.578;2023-06-26T04:58:15;20.40;99.90
23721;DHT22;42950;52.134;5.578;2023-06-26T05:00:41;20.30;99.90
23721;DHT22;42950;52.134;5.578;2023-06-26T05:03:14;20.30;99.90
23721;DHT22;42950;52.134;5.578;2023-06-26T05:05:40;20.40;99.90
23721;DHT22;42950;52.134;5.578;2023-06-26T05:08:21;20.40;99.90
23721;DHT22;42950;52.134;5.578;2023-06-26T05:10:46;20.40;99.90
23721;DHT22;42950;52.134;5.578;2023-06-26T05:13:12;20.30;99.90
23721;DHT22;42950;52.134;5.578;2023-06-26T05:15:41;20.30;99.90
23721;DHT22;42950;52.134;5.578;2023-06-26T05:18:08;20.30;99.90
23721;DHT22;42950;52.134;5.578;2023-06-26T05:20:34;20.30;99.90
23721;DHT22;42950;52.134;5.578;2023-06-26T05:23:02;20.30;99.90
23721;DHT22;42950;52.134;5.578;2023-06-26T05:25:31;20.40;99.90
23721;DHT22;42950;52.134;5.578;2023-06-26T05:27:58;20.30;99.90
23721;DHT22;42950;52.134;5.578;2023-06-26T05:30:25;20.30;99.90
23721;DHT22;42950;52.134;5.578;2023-06-26T05:32:51;20.30;99.90
23721;DHT22;42950;52.134;5.578;2023-06-26T05:35:18;20.40;99.90
23721;DHT22;42950;52.134;5.578;2023-06-26T05:37:45;20.30;99.90
23721;DHT22;42950;52.134;5.578;2023-06-26T05:40:12;20.40;99.90
23721;DHT22;42950;52.134;5.578;2023-06-26T05:42:38;20.40;99.90
23721;DHT22;42950;52.134;5.578;2023-06-26T05:45:04;20.40;99.90
23721;DHT22;42950;52.134;5.578;2023-06-26T05:47:30;20.30;99.90
23721;DHT22;42950;52.134;5.578;2023-06-26T05:49:56;20.30;99.90
23721;DHT22;42950;52.134;5.578;2023-06-26T05:52:22;20.40;99.90
23721;DHT22;42950;52.134;5.578;2023-06-26T05:54:48;20.40;99.90
23721;DHT22;42950;52.134;5.578;2023-06-26T05:57:13;20.50;99.90
23721;DHT22;42950;52.134;5.578;2023-06-26T05:59:40;20.60;99.90
23721;DHT22;42950;52.134;5.578;2023-06-26T06:02:08;20.50;99.90
23721;DHT22;42950;52.134;5.578;2023-06-26T06:04:33;20.50;99.90
23721;DHT22;42950;52.134;5.578;2023-06-26T06:07:00;20.60;99.90
23721;DHT22;42950;52.134;5.578;2023-06-26T06:09:26;20.60;99.90
23721;DHT22;42950;52.134;5.578;2023-06-26T06:11:51;20.60;99.90
23721;DHT22;42950;52.134;5.578;2023-06-26T06:14:17;20.60;99.90
23721;DHT22;42950;52.134;5.578;2023-06-26T06:16:42;20.60;99.90
23721;DHT22;42950;52.134;5.578;2023-06-26T06:19:08;20.70;99.90
23721;DHT22;42950;52.134;5.578;2023-06-26T06:21:36;20.80;99.90
23721;DHT22;42950;52.134;5.578;2023-06-26T06:24:02;20.80;99.90
23721;DHT22;42950;52.134;5.578;2023-06-26T06:26:28;20.80;99.90
23721;DHT22;42950;52.134;5.578;2023-06-26T06:28:54;20.70;99.90
23721;DHT22;42950;52.134;5.578;2023-06-26T06:31:19;20.70;99.90
23721;DHT22;42950;52.134;5.578;2023-06-26T06:33:45;20.70;99.90
23721;DHT22;42950;52.134;5.578;2023-06-26T06:36:10;20.80;99.90
23721;DHT22;42950;52.134;5.578;2023-06-26T06:38:36;20.90;99.90
23721;DHT22;42950;52.134;5.578;2023-06-26T06:41:01;21.00;99.90
23721;DHT22;42950;52.134;5.578;2023-06-26T06:43:27;21.00;99.90
23721;DHT22;42950;52.134;5.578;2023-06-26T06:45:52;21.00;99.90
23721;DHT22;42950;52.134;5.578;2023-06-26T06:48:18;21.10;99.90
23721;DHT22;42950;52.134;5.578;2023-06-26T06:50:44;21.10;99.90
23721;DHT22;42950;52.134;5.578;2023-06-26T06:53:09;21.10;99.90
23721;DHT22;42950;52.134;5.578;2023-06-26T06:55:35;21.00;99.90
23721;DHT22;42950;52.134;5.578;2023-06-26T06:58:00;21.00;99.90
23721;DHT22;42950;52.134;5.578;2023-06-26T07:00:26;21.20;99.90
23721;DHT22;42950;52.134;5.578;2023-06-26T07:02:53;21.30;99.90
23721;DHT22;42950;52.134;5.578;2023-06-26T07:05:18;21.40;99.90
23721;DHT22;42950;52.134;5.578;2023-06-26T07:07:44;21.50;99.90
23721;DHT22;42950;52.134;5.578;2023-06-26T07:10:13;21.50;99.90
23721;DHT22;42950;52.134;5.578;2023-06-26T07:12:39;21.40;99.90
23721;DHT22;42950;52.134;5.578;2023-06-26T07:15:06;21.40;99.90
23721;DHT22;42950;52.134;5.578;2023-06-26T07:17:33;21.30;99.90
23721;DHT22;42950;52.134;5.578;2023-06-26T07:20:00;21.20;99.90
23721;DHT22;42950;52.134;5.578;2023-06-26T07:22:26;21.20;99.90
23721;DHT22;42950;52.134;5.578;2023-06-26T07:24:52;21.20;99.90
23721;DHT22;42950;52.134;5.578;2023-06-26T07:27:18;21.40;99.90
23721;DHT22;42950;52.134;5.578;2023-06-26T07:29:44;21.50;99.90
23721;DHT22;42950;52.134;5.578;2023-06-26T07:32:10;21.50;99.90
23721;DHT22;42950;52.134;5.578;2023-06-26T07:34:36;21.40;99.90
23721;DHT22;42950;52.134;5.578;2023-06-26T07:37:01;21.40;99.90
23721;DHT22;42950;52.134;5.578;2023-06-26T07:39:27;21.60;99.90
23721;DHT22;42950;52.134;5.578;2023-06-26T07:41:52;21.70;99.90
23721;DHT22;42950;52.134;5.578;2023-06-26T07:44:19;22.00;99.90
23721;DHT22;42950;52.134;5.578;2023-06-26T07:46:45;22.10;99.90
23721;DHT22;42950;52.134;5.578;2023-06-26T07:49:11;22.00;99.90
23721;DHT22;42950;52.134;5.578;2023-06-26T07:51:37;22.00;99.90
23721;DHT22;42950;52.134;5.578;2023-06-26T07:54:03;21.80;99.90
23721;DHT22;42950;52.134;5.578;2023-06-26T07:56:30;21.60;99.90
23721;DHT22;42950;52.134;5.578;2023-06-26T07:58:55;21.60;99.90
23721;DHT22;42950;52.134;5.578;2023-06-26T08:01:23;21.80;99.90
23721;DHT22;42950;52.134;5.578;2023-06-26T08:03:49;21.80;99.90
23721;DHT22;42950;52.134;5.578;2023-06-26T08:06:15;21.90;99.90
23721;DHT22;42950;52.134;5.578;2023-06-26T08:08:41;22.10;99.90
23721;DHT22;42950;52.134;5.578;2023-06-26T08:11:07;22.30;99.90
23721;DHT22;42950;52.134;5.578;2023-06-26T08:13:33;22.40;99.90
23721;DHT22;42950;52.134;5.578;2023-06-26T08:15:59;22.30;99.90
23721;DHT22;42950;52.134;5.578;2023-06-26T08:18:25;22.10;99.90
23721;DHT22;42950;52.134;5.578;2023-06-26T08:20:50;22.20;99.90
23721;DHT22;42950;52.134;5.578;2023-06-26T08:23:17;22.20;99.90
23721;DHT22;42950;52.134;5.578;2023-06-26T08:25:43;22.20;99.90
23721;DHT22;42950;52.134;5.578;2023-06-26T08:28:09;22.10;99.90
23721;DHT22;42950;52.134;5.578;2023-06-26T08:30:36;22.30;99.90
23721;DHT22;42950;52.134;5.578;2023-06-26T08:33:02;22.20;99.90
23721;DHT22;42950;52.134;5.578;2023-06-26T08:35:27;22.40;99.90
23721;DHT22;42950;52.134;5.578;2023-06-26T08:37:53;22.70;99.90
23721;DHT22;42950;52.134;5.578;2023-06-26T08:40:21;22.80;99.90
23721;DHT22;42950;52.134;5.578;2023-06-26T08:42:47;22.60;99.90
23721;DHT22;42950;52.134;5.578;2023-06-26T08:45:12;22.50;99.90
23721;DHT22;42950;52.134;5.578;2023-06-26T08:47:39;22.60;99.90
23721;DHT22;42950;52.134;5.578;2023-06-26T08:50:13;22.70;99.90
23721;DHT22;42950;52.134;5.578;2023-06-26T08:52:54;22.70;99.90
23721;DHT22;42950;52.134;5.578;2023-06-26T08:55:23;22.90;99.90
23721;DHT22;42950;52.134;5.578;2023-06-26T08:57:51;23.10;99.90
23721;DHT22;42950;52.134;5.578;2023-06-26T09:00:19;23.10;99.90
23721;DHT22;42950;52.134;5.578;2023-06-26T09:02:46;22.80;99.90
23721;DHT22;42950;52.134;5.578;2023-06-26T09:05:12;22.80;99.90
23721;DHT22;42950;52.134;5.578;2023-06-26T09:07:38;22.90;99.90
23721;DHT22;42950;52.134;5.578;2023-06-26T09:10:04;22.90;99.90
23721;DHT22;42950;52.134;5.578;2023-06-26T09:12:31;23.00;99.90
23721;DHT22;42950;52.134;5.578;2023-06-26T09:14:57;22.90;99.90
23721;DHT22;42950;52.134;5.578;2023-06-26T09:17:29;22.50;99.90
23721;DHT22;42950;52.134;5.578;2023-06-26T09:19:55;22.60;99.90
23721;DHT22;42950;52.134;5.578;2023-06-26T09:22:21;23.00;99.90
23721;DHT22;42950;52.134;5.578;2023-06-26T09:24:48;23.30;99.90
23721;DHT22;42950;52.134;5.578;2023-06-26T09:27:14;23.20;99.90
23721;DHT22;42950;52.134;5.578;2023-06-26T09:29:39;23.30;99.90
23721;DHT22;42950;52.134;5.578;2023-06-26T09:32:08;23.20;99.90
23721;DHT22;42950;52.134;5.578;2023-06-26T09:34:35;22.80;99.90
23721;DHT22;42950;52.134;5.578;2023-06-26T09:37:01;22.60;99.90
23721;DHT22;42950;52.134;5.578;2023-06-26T09:39:30;22.70;99.90
23721;DHT22;42950;52.134;5.578;2023-06-26T09:41:56;23.10;99.90
23721;DHT22;42950;52.134;5.578;2023-06-26T09:44:24;23.30;99.90
23721;DHT22;42950;52.134;5.578;2023-06-26T09:46:50;23.10;99.90
23721;DHT22;42950;52.134;5.578;2023-06-26T09:49:15;23.10;99.90
23721;DHT22;42950;52.134;5.578;2023-06-26T09:51:42;23.50;99.90
23721;DHT22;42950;52.134;5.578;2023-06-26T09:54:10;23.70;99.90
23721;DHT22;42950;52.134;5.578;2023-06-26T09:56:36;23.70;99.90
23721;DHT22;42950;52.134;5.578;2023-06-26T09:59:03;24.10;99.90
23721;DHT22;42950;52.134;5.578;2023-06-26T10:01:30;24.10;99.90
23721;DHT22;42950;52.134;5.578;2023-06-26T10:03:56;23.50;99.90
23721;DHT22;42950;52.134;5.578;2023-06-26T10:06:36;23.50;99.90
23721;DHT22;42950;52.134;5.578;2023-06-26T10:09:03;23.50;99.90
23721;DHT22;42950;52.134;5.578;2023-06-26T10:11:36;23.20;99.90
23721;DHT22;42950;52.134;5.578;2023-06-26T10:14:04;23.00;99.90
23721;DHT22;42950;52.134;5.578;2023-06-26T10:16:32;23.10;99.90
23721;DHT22;42950;52.134;5.578;2023-06-26T10:19:02;23.60;99.90
23721;DHT22;42950;52.134;5.578;2023-06-26T10:21:31;24.10;99.90
23721;DHT22;42950;52.134;5.578;2023-06-26T10:23:57;24.50;99.90
23721;DHT22;42950;52.134;5.578;2023-06-26T10:26:24;24.50;99.90
23721;DHT22;42950;52.134;5.578;2023-06-26T10:28:53;24.00;99.90
23721;DHT22;42950;52.134;5.578;2023-06-26T10:31:22;23.20;99.90
23721;DHT22;42950;52.134;5.578;2023-06-26T10:33:49;23.40;99.90
23721;DHT22;42950;52.134;5.578;2023-06-26T10:36:28;23.70;99.90
23721;DHT22;42950;52.134;5.578;2023-06-26T10:39:04;23.90;99.90
23721;DHT22;42950;52.134;5.578;2023-06-26T10:41:37;23.90;99.90
23721;DHT22;42950;52.134;5.578;2023-06-26T10:44:07;23.90;99.90
23721;DHT22;42950;52.134;5.578;2023-06-26T10:46:54;23.60;99.90
23721;DHT22;42950;52.134;5.578;2023-06-26T10:49:25;23.70;99.90
23721;DHT22;42950;52.134;5.578;2023-06-26T10:51:51;23.40;99.90
23721;DHT22;42950;52.134;5.578;2023-06-26T10:54:18;23.20;99.90
23721;DHT22;42950;52.134;5.578;2023-06-26T10:56:48;23.10;99.90
23721;DHT22;42950;52.134;5.578;2023-06-26T10:59:19;23.40;99.90
23721;DHT22;42950;52.134;5.578;2023-06-26T11:01:54;23.80;99.90
23721;DHT22;42950;52.134;5.578;2023-06-26T11:04:45;23.50;99.90
23721;DHT22;42950;52.134;5.578;2023-06-26T11:07:21;23.60;99.90
23721;DHT22;42950;52.134;5.578;2023-06-26T11:10:01;23.70;99.90
23721;DHT22;42950;52.134;5.578;2023-06-26T11:12:43;23.60;99.90
23721;DHT22;42950;52.134;5.578;2023-06-26T11:15:10;23.50;99.90
23721;DHT22;42950;52.134;5.578;2023-06-26T11:17:37;23.40;99.90
23721;DHT22;42950;52.134;5.578;2023-06-26T11:20:05;23.50;99.90
23721;DHT22;42950;52.134;5.578;2023-06-26T11:22:34;23.60;99.90
23721;DHT22;42950;52.134;5.578;2023-06-26T11:25:01;23.70;99.90
23721;DHT22;42950;52.134;5.578;2023-06-26T11:29:58;23.90;99.90
23721;DHT22;42950;52.134;5.578;2023-06-26T11:32:26;23.90;99.90
23721;DHT22;42950;52.134;5.578;2023-06-26T11:34:53;24.10;99.90
23721;DHT22;42950;52.134;5.578;2023-06-26T11:37:20;24.40;99.90
23721;DHT22;42950;52.134;5.578;2023-06-26T11:39:46;24.20;99.90
23721;DHT22;42950;52.134;5.578;2023-06-26T11:42:12;23.90;99.90
23721;DHT22;42950;52.134;5.578;2023-06-26T11:44:42;24.00;99.90
23721;DHT22;42950;52.134;5.578;2023-06-26T11:47:20;23.60;99.90
23721;DHT22;42950;52.134;5.578;2023-06-26T11:49:48;23.40;99.90
23721;DHT22;42950;52.134;5.578;2023-06-26T11:52:15;23.80;99.90
23721;DHT22;42950;52.134;5.578;2023-06-26T11:54:41;24.00;99.90
23721;DHT22;42950;52.134;5.578;2023-06-26T11:57:07;24.10;99.90
23721;DHT22;42950;52.134;5.578;2023-06-26T11:59:38;24.50;99.90
23721;DHT22;42950;52.134;5.578;2023-06-26T12:02:14;24.90;99.90
23721;DHT22;42950;52.134;5.578;2023-06-26T12:04:42;24.70;99.90
23721;DHT22;42950;52.134;5.578;2023-06-26T12:07:09;24.30;99.90
23721;DHT22;42950;52.134;5.578;2023-06-26T12:09:46;24.40;99.90
23721;DHT22;42950;52.134;5.578;2023-06-26T12:12:16;24.60;99.90
23721;DHT22;42950;52.134;5.578;2023-06-26T12:14:42;24.80;99.90
23721;DHT22;42950;52.134;5.578;2023-06-26T12:17:13;24.80;99.90
23721;DHT22;42950;52.134;5.578;2023-06-26T12:19:44;25.10;99.90
23721;DHT22;42950;52.134;5.578;2023-06-26T12:22:10;25.10;99.90
23721;DHT22;42950;52.134;5.578;2023-06-26T12:24:37;24.80;99.90
23721;DHT22;42950;52.134;5.578;2023-06-26T12:27:08;25.10;99.90
23721;DHT22;42950;52.134;5.578;2023-06-26T12:29:35;24.70;99.90
23721;DHT22;42950;52.134;5.578;2023-06-26T12:32:01;24.10;99.90
23721;DHT22;42950;52.134;5.578;2023-06-26T12:34:32;23.60;99.90
23721;DHT22;42950;52.134;5.578;2023-06-26T12:37:18;24.00;99.90
23721;DHT22;42950;52.134;5.578;2023-06-26T12:42:21;23.90;99.90
23721;DHT22;42950;52.134;5.578;2023-06-26T12:44:47;24.10;99.90
23721;DHT22;42950;52.134;5.578;2023-06-26T12:47:15;24.30;99.90
23721;DHT22;42950;52.134;5.578;2023-06-26T12:49:42;24.30;99.90
23721;DHT22;42950;52.134;5.578;2023-06-26T12:52:13;24.50;99.90
23721;DHT22;42950;52.134;5.578;2023-06-26T12:54:41;24.30;99.90
23721;DHT22;42950;52.134;5.578;2023-06-26T12:57:07;24.20;99.90
23721;DHT22;42950;52.134;5.578;2023-06-26T12:59:34;24.60;99.90
23721;DHT22;42950;52.134;5.578;2023-06-26T13:02:00;24.90;99.90
23721;DHT22;42950;52.134;5.578;2023-06-26T13:04:26;24.70;99.90
23721;DHT22;42950;52.134;5.578;2023-06-26T13:06:52;24.60;99.90
23721;DHT22;42950;52.134;5.578;2023-06-26T13:09:20;24.50;99.90
23721;DHT22;42950;52.134;5.578;2023-06-26T13:11:45;24.80;99.90
23721;DHT22;42950;52.134;5.578;2023-06-26T13:14:11;25.20;99.90
23721;DHT22;42950;52.134;5.578;2023-06-26T13:16:37;25.50;99.90
23721;DHT22;42950;52.134;5.578;2023-06-26T13:19:03;25.20;99.90
23721;DHT22;42950;52.134;5.578;2023-06-26T13:21:28;25.20;99.90
23721;DHT22;42950;52.134;5.578;2023-06-26T13:23:55;25.10;99.90
23721;DHT22;42950;52.134;5.578;2023-06-26T13:26:21;25.10;99.90
23721;DHT22;42950;52.134;5.578;2023-06-26T13:28:48;25.10;99.90
23721;DHT22;42950;52.134;5.578;2023-06-26T13:31:14;24.90;99.90
23721;DHT22;42950;52.134;5.578;2023-06-26T13:33:39;25.00;99.90
23721;DHT22;42950;52.134;5.578;2023-06-26T13:36:05;25.00;99.90
23721;DHT22;42950;52.134;5.578;2023-06-26T13:38:33;25.10;99.90
23721;DHT22;42950;52.134;5.578;2023-06-26T13:40:58;25.00;99.90
23721;DHT22;42950;52.134;5.578;2023-06-26T13:43:26;25.10;99.90
23721;DHT22;42950;52.134;5.578;2023-06-26T13:45:53;24.80;99.90
23721;DHT22;42950;52.134;5.578;2023-06-26T13:48:19;24.50;99.90
23721;DHT22;42950;52.134;5.578;2023-06-26T13:50:45;24.30;99.90
23721;DHT22;42950;52.134;5.578;2023-06-26T13:53:11;24.20;99.90
23721;DHT22;42950;52.134;5.578;2023-06-26T13:55:37;23.80;99.90
23721;DHT22;42950;52.134;5.578;2023-06-26T13:58:07;24.20;99.90
23721;DHT22;42950;52.134;5.578;2023-06-26T14:00:33;24.60;99.90
23721;DHT22;42950;52.134;5.578;2023-06-26T14:03:00;24.60;99.90
23721;DHT22;42950;52.134;5.578;2023-06-26T14:05:26;24.60;99.90
23721;DHT22;42950;52.134;5.578;2023-06-26T14:07:52;24.20;99.90
23721;DHT22;42950;52.134;5.578;2023-06-26T14:10:19;23.90;99.90
23721;DHT22;42950;52.134;5.578;2023-06-26T14:12:45;23.60;99.90
23721;DHT22;42950;52.134;5.578;2023-06-26T14:15:10;23.70;99.90
23721;DHT22;42950;52.134;5.578;2023-06-26T14:17:36;23.80;99.90
23721;DHT22;42950;52.134;5.578;2023-06-26T14:20:08;23.90;99.90
23721;DHT22;42950;52.134;5.578;2023-06-26T14:22:43;24.20;99.90
23721;DHT22;42950;52.134;5.578;2023-06-26T14:25:10;24.20;99.90
23721;DHT22;42950;52.134;5.578;2023-06-26T14:27:36;24.30;99.90
23721;DHT22;42950;52.134;5.578;2023-06-26T14:30:03;24.00;99.90
23721;DHT22;42950;52.134;5.578;2023-06-26T14:32:29;23.40;99.90
23721;DHT22;42950;52.134;5.578;2023-06-26T14:34:55;23.20;99.90
23721;DHT22;42950;52.134;5.578;2023-06-26T14:37:20;23.00;99.90
23721;DHT22;42950;52.134;5.578;2023-06-26T14:39:46;23.00;99.90
23721;DHT22;42950;52.134;5.578;2023-06-26T14:42:12;23.70;99.90
23721;DHT22;42950;52.134;5.578;2023-06-26T14:44:38;23.90;99.90
23721;DHT22;42950;52.134;5.578;2023-06-26T14:47:03;24.20;99.90
23721;DHT22;42950;52.134;5.578;2023-06-26T14:49:29;24.30;99.90
23721;DHT22;42950;52.134;5.578;2023-06-26T14:51:55;24.20;99.90
23721;DHT22;42950;52.134;5.578;2023-06-26T14:54:20;23.90;99.90
23721;DHT22;42950;52.134;5.578;2023-06-26T14:56:46;23.60;99.90
23721;DHT22;42950;52.134;5.578;2023-06-26T14:59:12;23.80;99.90
23721;DHT22;42950;52.134;5.578;2023-06-26T15:01:38;24.00;99.90
23721;DHT22;42950;52.134;5.578;2023-06-26T15:04:05;23.90;99.90
23721;DHT22;42950;52.134;5.578;2023-06-26T15:06:31;24.20;99.90
23721;DHT22;42950;52.134;5.578;2023-06-26T15:08:57;24.40;99.90
23721;DHT22;42950;52.134;5.578;2023-06-26T15:11:23;24.10;99.90
23721;DHT22;42950;52.134;5.578;2023-06-26T15:13:48;24.10;99.90
23721;DHT22;42950;52.134;5.578;2023-06-26T15:16:14;24.00;99.90
23721;DHT22;42950;52.134;5.578;2023-06-26T15:18:40;23.80;99.90
23721;DHT22;42950;52.134;5.578;2023-06-26T15:21:06;23.60;99.90
23721;DHT22;42950;52.134;5.578;2023-06-26T15:23:32;24.00;99.90
23721;DHT22;42950;52.134;5.578;2023-06-26T15:25:57;24.30;99.90
23721;DHT22;42950;52.134;5.578;2023-06-26T15:28:23;24.30;99.90
23721;DHT22;42950;52.134;5.578;2023-06-26T15:30:48;24.30;99.90
23721;DHT22;42950;52.134;5.578;2023-06-26T15:33:14;24.50;99.90
23721;DHT22;42950;52.134;5.578;2023-06-26T15:35:40;24.50;99.90
23721;DHT22;42950;52.134;5.578;2023-06-26T15:38:06;24.60;99.90
23721;DHT22;42950;52.134;5.578;2023-06-26T15:40:31;24.60;99.90
23721;DHT22;42950;52.134;5.578;2023-06-26T15:42:57;24.40;99.90